Terminal Aerodrome Forecast
Issued by NWS Twin Cities, MN

Home | Current Version | Previous Version | Graphics & Text | Print | Product List | Glossary On
Versions: 1 2 3 4 5 6 7 8 9 10 11 12 13 14 15 16 17 18 19 20 21 22 23 24 25 26 27
000
FTUS43 KMPX 191100
TAFMSP
TAF
KMSP 191133Z 1912/2018 29012G23KT 5SM -SN SCT017 OVC035
     FM191400 29017G27KT P6SM OVC035
     FM191800 29017G27KT P6SM OVC030
      TEMPO 1918/1922 6SM -SN
     FM192300 28012G20KT P6SM BKN035
     FM200400 27010KT P6SM SCT040=

USA.gov is the U.S. government's official web portal to all federal, state and local government web resources and services.